Time;durP1;ratioP1;P1;durP2;ratioP2;P2;SDS_P1;SDS_P2;PMS_P1;PMS_P2;Temp;Humidity;BMP_temperature;BMP_pressure;BME280_temperature;BME280_humidity;BME280_pressure;Samples;Min_cycle;Max_cycle;Signal;HPM_P1;HPM_P2
2023/08/10 00:00:43;;;;;;;2.55;0.70;;;14.60;99.90;;;;;;5016788;28;20035;-74
2023/08/10 00:03:10;;;;;;;2.42;0.60;;;14.60;99.90;;;;;;5026083;28;20024;-74
2023/08/10 00:05:37;;;;;;;1.92;0.60;;;14.60;99.90;;;;;;5032077;28;20051;-74
2023/08/10 00:08:03;;;;;;;2.03;0.60;;;14.60;99.90;;;;;;5032141;28;20410;-75
2023/08/10 00:10:30;;;;;;;1.55;0.70;;;14.70;99.90;;;;;;5029361;28;20399;-75
2023/08/10 00:12:56;;;;;;;2.10;0.90;;;14.70;99.90;;;;;;5031041;28;20048;-74
2023/08/10 00:15:22;;;;;;;2.40;0.85;;;14.70;99.90;;;;;;5013833;28;20036;-74
2023/08/10 00:17:49;;;;;;;2.40;0.75;;;14.70;99.90;;;;;;5032091;28;20029;-74
2023/08/10 00:20:15;;;;;;;2.40;0.80;;;14.70;99.90;;;;;;5030483;28;20096;-75
2023/08/10 00:22:42;;;;;;;2.25;0.60;;;14.70;99.90;;;;;;5004266;28;20044;-74
2023/08/10 00:25:08;;;;;;;2.05;0.88;;;14.70;99.90;;;;;;5032784;28;20435;-74
2023/08/10 00:27:38;;;;;;;1.88;0.80;;;14.70;99.90;;;;;;5024552;28;20033;-75
2023/08/10 00:30:08;;;;;;;5.43;0.88;;;14.80;99.90;;;;;;5016542;28;20029;-74
2023/08/10 00:32:36;;;;;;;2.92;0.68;;;14.80;99.90;;;;;;5010866;28;20033;-74
2023/08/10 00:35:03;;;;;;;2.03;0.70;;;14.80;99.90;;;;;;5030093;28;20044;-75
2023/08/10 00:37:29;;;;;;;1.48;0.65;;;14.80;99.90;;;;;;5014364;28;20033;-74
2023/08/10 00:39:58;;;;;;;2.20;0.60;;;14.80;99.90;;;;;;5006062;28;20044;-75
2023/08/10 00:42:24;;;;;;;3.25;0.75;;;14.80;99.90;;;;;;5034641;28;20052;-73
2023/08/10 00:44:50;;;;;;;2.08;0.73;;;14.80;99.90;;;;;;5032909;28;20411;-73
2023/08/10 00:47:17;;;;;;;1.85;0.80;;;14.80;99.90;;;;;;5032967;28;20040;-74
2023/08/10 00:49:43;;;;;;;3.80;0.75;;;14.80;99.90;;;;;;5032713;28;20029;-74
2023/08/10 00:52:10;;;;;;;3.67;0.60;;;14.80;99.90;;;;;;5013964;28;20044;-74
2023/08/10 00:54:36;;;;;;;2.20;0.80;;;14.70;99.90;;;;;;5025574;28;20048;-74
2023/08/10 00:57:03;;;;;;;2.25;0.60;;;14.80;99.90;;;;;;5006213;28;20158;-75
2023/08/10 00:59:31;;;;;;;1.80;0.77;;;14.80;99.90;;;;;;4997620;28;20541;-74
2023/08/10 01:01:58;;;;;;;2.25;0.57;;;14.80;99.90;;;;;;5033862;28;20237;-74
2023/08/10 01:04:24;;;;;;;3.00;0.70;;;14.80;99.90;;;;;;5036240;28;20025;-73
2023/08/10 01:07:06;;;;;;;3.08;0.57;;;14.70;99.90;;;;;;5038378;28;20047;-72
2023/08/10 01:10:05;;;;;;;2.10;0.70;;;14.80;99.90;;;;;;5034237;28;20040;-74
2023/08/10 01:12:44;;;;;;;2.42;0.50;;;14.80;99.90;;;;;;5037074;28;20048;-73
2023/08/10 01:15:35;;;;;;;2.25;0.70;;;14.80;99.90;;;;;;5034514;28;20434;-73
2023/08/10 01:18:08;;;;;;;3.50;0.70;;;14.80;99.90;;;;;;5036654;28;20479;-73
2023/08/10 01:20:35;;;;;;;2.25;0.70;;;14.80;99.90;;;;;;5034609;28;20395;-74
2023/08/10 01:23:22;;;;;;;2.17;0.70;;;14.80;99.90;;;;;;5019040;28;20033;-73
2023/08/10 01:25:50;;;;;;;2.33;0.90;;;14.80;99.90;;;;;;5035025;28;20025;-73
2023/08/10 01:28:17;;;;;;;2.72;0.70;;;14.80;99.90;;;;;;5035289;28;20454;-74
2023/08/10 01:30:44;;;;;;;3.30;0.70;;;14.80;99.90;;;;;;5017948;28;20542;-72
2023/08/10 01:33:11;;;;;;;2.47;0.90;;;14.80;99.90;;;;;;5035176;28;20051;-73
2023/08/10 01:35:37;;;;;;;3.67;0.90;;;14.80;99.90;;;;;;5035890;28;20041;-74
2023/08/10 01:38:04;;;;;;;2.80;0.68;;;14.70;99.90;;;;;;5034605;28;20025;-74
2023/08/10 01:40:31;;;;;;;3.90;0.98;;;14.80;99.90;;;;;;5005404;28;20040;-73
2023/08/10 01:43:02;;;;;;;1.83;0.70;;;14.70;99.90;;;;;;5001777;28;20141;-74
2023/08/10 01:45:29;;;;;;;3.25;0.80;;;14.80;99.90;;;;;;5025236;28;20096;-72
2023/08/10 01:48:08;;;;;;;1.98;0.75;;;14.80;99.90;;;;;;5036756;28;20032;-74
2023/08/10 01:50:40;;;;;;;2.55;0.70;;;14.80;99.90;;;;;;5018339;28;20036;-74
2023/08/10 01:53:15;;;;;;;4.10;0.70;;;14.80;99.90;;;;;;5026437;28;20029;-73
2023/08/10 01:55:42;;;;;;;1.38;0.68;;;14.70;99.90;;;;;;5033936;28;20033;-74
2023/08/10 01:58:08;;;;;;;2.75;0.95;;;14.70;99.90;;;;;;5034350;28;20036;-72
2023/08/10 02:00:37;;;;;;;3.08;1.08;;;14.70;99.90;;;;;;5050183;28;20459;-74
2023/08/10 02:03:04;;;;;;;1.88;0.63;;;14.70;99.90;;;;;;5014587;28;20033;-74
2023/08/10 02:05:30;;;;;;;1.45;0.60;;;14.60;99.90;;;;;;5034963;28;20036;-73
2023/08/10 02:07:57;;;;;;;3.50;0.93;;;14.60;99.90;;;;;;5000935;28;20060;-74
2023/08/10 02:10:23;;;;;;;1.50;0.63;;;14.70;99.90;;;;;;5034878;28;20036;-74
2023/08/10 02:12:50;;;;;;;2.30;0.70;;;14.60;99.90;;;;;;5033598;28;20027;-73
2023/08/10 02:15:16;;;;;;;2.15;0.73;;;14.70;99.90;;;;;;5017576;28;20044;-72
2023/08/10 02:17:43;;;;;;;1.98;0.57;;;14.70;99.90;;;;;;5034008;28;20041;-73
2023/08/10 02:20:13;;;;;;;1.55;0.80;;;14.70;99.90;;;;;;5015359;28;20045;-74
2023/08/10 02:22:44;;;;;;;1.10;0.50;;;14.70;99.90;;;;;;5032986;28;20791;-73
2023/08/10 02:25:11;;;;;;;2.47;0.70;;;14.70;99.90;;;;;;5033402;28;20492;-73
2023/08/10 02:27:39;;;;;;;2.33;0.70;;;14.60;99.90;;;;;;5011346;28;20029;-74
2023/08/10 02:30:06;;;;;;;2.40;0.60;;;14.60;99.90;;;;;;5014012;28;20033;-72
2023/08/10 02:32:33;;;;;;;2.90;0.80;;;14.60;99.90;;;;;;5033817;28;20040;-74
2023/08/10 02:35:00;;;;;;;2.13;0.60;;;14.60;99.90;;;;;;5014672;28;20416;-74
2023/08/10 02:37:27;;;;;;;1.40;0.70;;;14.50;99.90;;;;;;5020368;28;20036;-73
2023/08/10 02:39:53;;;;;;;1.33;0.60;;;14.50;99.90;;;;;;5031491;28;20377;-74
2023/08/10 02:42:20;;;;;;;1.63;0.70;;;14.50;99.90;;;;;;5012308;28;20056;-73
2023/08/10 02:44:49;;;;;;;2.20;0.70;;;14.40;99.90;;;;;;5031004;28;20033;-74
2023/08/10 02:47:15;;;;;;;1.58;0.60;;;14.40;99.90;;;;;;5033213;28;20033;-73
2023/08/10 02:49:42;;;;;;;1.70;0.60;;;14.40;99.90;;;;;;5016329;28;20051;-73
2023/08/10 02:52:08;;;;;;;1.52;0.43;;;14.30;99.90;;;;;;5018590;28;20024;-74
2023/08/10 02:54:34;;;;;;;1.60;0.50;;;14.30;99.90;;;;;;5030841;28;20021;-72
2023/08/10 02:57:01;;;;;;;1.10;0.63;;;14.30;99.90;;;;;;5001350;28;20033;-73
2023/08/10 02:59:27;;;;;;;2.72;0.70;;;14.30;99.90;;;;;;5033151;28;20132;-72
2023/08/10 03:01:55;;;;;;;1.42;0.50;;;14.30;99.90;;;;;;4991216;28;20037;-73
2023/08/10 03:04:21;;;;;;;1.98;0.55;;;14.30;99.90;;;;;;5013963;28;20040;-73
2023/08/10 03:06:48;;;;;;;2.40;0.60;;;14.30;99.90;;;;;;5033558;28;20037;-73
2023/08/10 03:09:14;;;;;;;2.33;0.65;;;14.30;99.90;;;;;;5003086;28;20032;-74
2023/08/10 03:11:41;;;;;;;2.03;0.70;;;14.40;99.90;;;;;;5008780;28;20041;-74
2023/08/10 03:14:07;;;;;;;1.58;0.60;;;14.40;99.90;;;;;;5030331;28;20035;-73
2023/08/10 03:16:34;;;;;;;2.55;0.60;;;14.40;99.90;;;;;;5018274;28;20809;-73
2023/08/10 03:19:01;;;;;;;2.45;0.60;;;14.40;99.90;;;;;;5000614;28;20041;-73
2023/08/10 03:21:29;;;;;;;2.63;0.60;;;14.40;99.90;;;;;;5014691;28;20264;-74
2023/08/10 03:23:55;;;;;;;2.13;0.60;;;14.40;99.90;;;;;;5032359;28;20028;-74
2023/08/10 03:26:22;;;;;;;3.55;0.60;;;14.40;99.90;;;;;;5019840;28;20044;-73
2023/08/10 03:28:49;;;;;;;1.98;0.65;;;14.50;99.90;;;;;;5017924;28;20044;-74
2023/08/10 03:31:16;;;;;;;5.38;0.73;;;14.50;99.90;;;;;;5015599;28;20044;-73
2023/08/10 03:33:43;;;;;;;1.95;0.57;;;14.50;99.90;;;;;;5046075;28;20123;-73
2023/08/10 03:36:10;;;;;;;1.65;0.57;;;14.50;99.90;;;;;;5033156;28;20025;-73
2023/08/10 03:38:36;;;;;;;2.72;0.50;;;14.50;99.90;;;;;;5013866;28;20053;-73
2023/08/10 03:41:03;;;;;;;1.90;0.55;;;14.50;99.90;;;;;;4992948;28;20037;-73
2023/08/10 03:43:29;;;;;;;3.45;0.80;;;14.50;99.90;;;;;;5027129;28;20077;-74
2023/08/10 03:45:56;;;;;;;1.92;0.65;;;14.50;99.90;;;;;;5000510;28;20091;-72
2023/08/10 03:48:22;;;;;;;2.63;0.70;;;14.50;99.90;;;;;;5048687;28;20502;-74
2023/08/10 03:50:49;;;;;;;2.28;0.50;;;14.50;99.90;;;;;;5014457;28;20472;-73
2023/08/10 03:53:16;;;;;;;1.20;0.50;;;14.60;99.90;;;;;;5032945;28;20041;-74
2023/08/10 03:55:45;;;;;;;2.10;0.73;;;14.60;99.90;;;;;;5031772;28;20033;-73
2023/08/10 03:58:12;;;;;;;0.90;0.50;;;14.50;99.90;;;;;;5028219;28;20396;-73
2023/08/10 04:00:44;;;;;;;1.88;0.50;;;14.60;99.90;;;;;;5032735;28;20035;-74
2023/08/10 04:03:12;;;;;;;1.20;0.40;;;14.60;99.90;;;;;;5017022;28;20095;-73
2023/08/10 04:05:39;;;;;;;2.70;0.57;;;14.60;99.90;;;;;;5031622;28;20036;-73
2023/08/10 04:08:09;;;;;;;1.95;0.50;;;14.60;99.90;;;;;;5032935;28;20044;-73
2023/08/10 04:10:36;;;;;;;0.95;0.30;;;14.60;99.90;;;;;;5015563;28;20051;-73
2023/08/10 04:13:03;;;;;;;1.40;0.40;;;14.60;99.90;;;;;;5031867;28;20036;-73
2023/08/10 04:15:30;;;;;;;2.30;0.40;;;14.60;99.90;;;;;;5030829;28;20031;-74
2023/08/10 04:17:57;;;;;;;2.80;0.50;;;14.60;99.90;;;;;;5030153;28;20041;-73
2023/08/10 04:20:24;;;;;;;1.02;0.40;;;14.60;99.90;;;;;;5014972;28;20431;-73
2023/08/10 04:22:51;;;;;;;2.50;0.38;;;14.60;99.90;;;;;;5012582;28;20399;-74
2023/08/10 04:25:18;;;;;;;1.10;0.40;;;14.50;99.90;;;;;;5015943;28;20033;-73
2023/08/10 04:27:44;;;;;;;2.55;0.40;;;14.60;99.90;;;;;;5033308;28;20044;-73
2023/08/10 04:30:12;;;;;;;1.75;0.40;;;14.60;99.90;;;;;;4992722;28;20049;-73
2023/08/10 04:32:38;;;;;;;2.92;0.50;;;14.60;99.90;;;;;;5016325;28;20043;-72
2023/08/10 04:35:06;;;;;;;3.33;0.50;;;14.60;99.90;;;;;;5032389;28;20040;-74
2023/08/10 04:37:33;;;;;;;2.28;0.52;;;14.60;99.90;;;;;;5037628;28;20384;-74
2023/08/10 04:40:00;;;;;;;1.63;0.40;;;14.60;99.90;;;;;;5001548;28;20053;-72
2023/08/10 04:42:26;;;;;;;0.93;0.30;;;14.60;99.90;;;;;;5033978;28;21208;-74
2023/08/10 04:44:52;;;;;;;1.90;0.50;;;14.60;99.90;;;;;;5018795;28;20063;-74
2023/08/10 04:47:19;;;;;;;1.35;0.50;;;14.70;99.90;;;;;;5036062;28;20029;-73
2023/08/10 04:49:45;;;;;;;2.42;0.50;;;14.70;99.90;;;;;;5020546;28;20494;-73
2023/08/10 04:52:12;;;;;;;1.80;0.65;;;14.70;99.90;;;;;;5038230;28;20029;-73
2023/08/10 04:54:40;;;;;;;1.65;0.47;;;14.80;99.90;;;;;;5034772;28;20037;-73
2023/08/10 04:57:06;;;;;;;2.38;0.50;;;14.90;99.90;;;;;;5038497;28;20731;-74
2023/08/10 04:59:33;;;;;;;1.40;0.52;;;14.90;99.90;;;;;;5017377;28;20502;-73
2023/08/10 05:01:59;;;;;;;1.35;0.60;;;15.00;99.90;;;;;;5037091;28;20029;-73
2023/08/10 05:04:25;;;;;;;2.28;0.70;;;15.10;99.90;;;;;;5035709;28;20040;-73
2023/08/10 05:06:52;;;;;;;1.70;0.60;;;15.10;99.90;;;;;;5035127;28;20025;-73
2023/08/10 05:09:18;;;;;;;2.80;0.80;;;15.30;99.90;;;;;;5010474;28;20044;-73
2023/08/10 05:11:44;;;;;;;3.38;0.82;;;15.40;99.90;;;;;;4998378;28;20056;-72
2023/08/10 05:14:11;;;;;;;2.03;0.60;;;15.60;99.90;;;;;;5017944;28;20033;-73
2023/08/10 05:16:37;;;;;;;1.65;0.70;;;15.80;99.90;;;;;;5020854;28;20040;-74
2023/08/10 05:19:04;;;;;;;1.67;0.60;;;16.00;99.90;;;;;;5032525;28;20041;-74
2023/08/10 05:21:30;;;;;;;2.15;0.80;;;16.10;99.90;;;;;;5017880;28;20028;-74
2023/08/10 05:23:56;;;;;;;2.47;0.80;;;16.10;99.90;;;;;;5031526;28;20045;-72
2023/08/10 05:26:23;;;;;;;2.63;0.75;;;16.20;99.90;;;;;;5017122;28;20037;-74
2023/08/10 05:28:50;;;;;;;2.15;0.63;;;16.20;99.90;;;;;;5020065;28;20040;-74
2023/08/10 05:31:17;;;;;;;3.17;0.90;;;16.20;99.90;;;;;;5003850;28;20037;-73
2023/08/10 05:33:43;;;;;;;2.42;1.10;;;16.20;99.90;;;;;;5016820;28;20036;-72
2023/08/10 05:36:10;;;;;;;1.80;0.70;;;16.20;99.90;;;;;;5034152;28;20723;-73
2023/08/10 05:38:38;;;;;;;3.10;0.98;;;16.10;99.90;;;;;;5033784;28;20472;-73
2023/08/10 05:41:05;;;;;;;2.70;0.80;;;16.20;99.90;;;;;;5034807;28;20033;-72
2023/08/10 05:43:31;;;;;;;2.15;0.82;;;16.20;99.90;;;;;;5004974;28;20041;-73
2023/08/10 05:45:57;;;;;;;2.50;0.70;;;16.30;99.90;;;;;;5029461;28;20040;-73
2023/08/10 05:48:24;;;;;;;2.33;1.33;;;16.50;99.90;;;;;;5019169;28;20032;-73
2023/08/10 05:50:50;;;;;;;2.58;1.10;;;16.60;99.90;;;;;;5036857;28;20048;-74
2023/08/10 05:53:17;;;;;;;2.30;0.80;;;16.70;99.90;;;;;;5035004;28;20036;-73
2023/08/10 05:55:43;;;;;;;1.85;0.80;;;16.90;99.90;;;;;;5033367;28;20040;-73
2023/08/10 05:58:09;;;;;;;2.55;1.00;;;17.10;99.90;;;;;;5017292;28;20037;-73
2023/08/10 06:00:39;;;;;;;2.00;0.70;;;17.20;99.90;;;;;;5030417;28;20025;-73
2023/08/10 06:03:06;;;;;;;2.42;0.70;;;17.40;99.90;;;;;;5009241;28;20055;-74
2023/08/10 06:05:32;;;;;;;1.63;0.60;;;17.40;99.90;;;;;;5015748;28;20052;-73
2023/08/10 06:07:59;;;;;;;1.60;0.80;;;17.50;99.90;;;;;;5018914;28;20037;-73
2023/08/10 06:10:25;;;;;;;1.38;0.70;;;17.50;99.90;;;;;;5034077;28;20605;-74
2023/08/10 06:12:52;;;;;;;3.65;0.80;;;17.50;99.90;;;;;;5020270;28;20030;-75
2023/08/10 06:15:19;;;;;;;1.85;0.60;;;17.50;99.90;;;;;;5017689;28;20479;-74
2023/08/10 06:17:45;;;;;;;3.00;0.90;;;17.40;99.90;;;;;;5033162;28;20498;-73
2023/08/10 06:20:16;;;;;;;2.50;0.70;;;17.40;99.90;;;;;;5032632;28;20033;-74
2023/08/10 06:22:44;;;;;;;3.47;1.23;;;17.40;99.90;;;;;;5002743;28;20044;-75
2023/08/10 06:25:12;;;;;;;4.25;1.38;;;17.40;99.90;;;;;;5032302;28;20041;-74
2023/08/10 06:27:39;;;;;;;3.70;1.00;;;17.40;99.90;;;;;;5033239;28;20044;-73
2023/08/10 06:30:06;;;;;;;1.88;1.00;;;17.60;99.90;;;;;;5030235;28;20388;-73
2023/08/10 06:32:34;;;;;;;2.88;0.82;;;17.70;99.90;;;;;;5033469;28;20036;-74
2023/08/10 06:35:01;;;;;;;2.20;0.88;;;18.00;99.90;;;;;;5018402;28;20033;-74
2023/08/10 06:37:28;;;;;;;4.40;1.10;;;18.30;99.90;;;;;;5017279;28;20029;-74
2023/08/10 06:39:54;;;;;;;2.10;0.90;;;18.70;99.90;;;;;;5035242;28;20572;-75
2023/08/10 06:42:21;;;;;;;2.00;0.93;;;18.90;99.90;;;;;;5031444;28;20040;-74
2023/08/10 06:44:56;;;;;;;3.15;0.68;;;19.00;99.90;;;;;;5017941;28;20029;-75
2023/08/10 06:47:23;;;;;;;2.00;0.70;;;19.10;99.90;;;;;;5015563;28;20111;-74
2023/08/10 06:49:49;;;;;;;2.83;0.95;;;19.30;99.90;;;;;;5032590;28;20036;-73
2023/08/10 06:52:15;;;;;;;3.50;1.10;;;19.70;99.90;;;;;;5008315;28;20661;-75
2023/08/10 06:54:42;;;;;;;2.35;1.38;;;20.00;99.90;;;;;;5035595;28;20488;-75
2023/08/10 06:57:08;;;;;;;3.38;0.98;;;20.20;99.90;;;;;;5016174;28;20268;-73
2023/08/10 06:59:34;;;;;;;2.60;0.80;;;20.30;99.90;;;;;;5029749;28;20036;-73
2023/08/10 07:02:01;;;;;;;3.70;0.90;;;20.40;99.90;;;;;;5018296;28;20032;-73
2023/08/10 07:04:27;;;;;;;2.85;0.80;;;20.40;99.90;;;;;;5031447;28;20045;-73
2023/08/10 07:06:54;;;;;;;2.28;0.80;;;20.40;99.90;;;;;;5001815;28;20040;-73
2023/08/10 07:09:23;;;;;;;5.00;1.17;;;20.50;99.90;;;;;;5014767;28;20041;-74
2023/08/10 07:11:49;;;;;;;2.65;0.70;;;20.70;99.90;;;;;;5005880;28;20052;-73
2023/08/10 07:14:15;;;;;;;3.05;0.90;;;20.70;99.90;;;;;;5032860;28;20036;-73
2023/08/10 07:16:42;;;;;;;3.15;1.15;;;20.80;99.90;;;;;;5033783;28;20029;-73
2023/08/10 07:19:09;;;;;;;3.72;0.85;;;20.90;99.90;;;;;;5031156;28;20037;-73
2023/08/10 07:21:36;;;;;;;5.43;1.02;;;20.80;99.90;;;;;;5031665;28;20048;-73
2023/08/10 07:24:05;;;;;;;5.07;1.00;;;20.90;99.90;;;;;;5013586;28;20039;-74
2023/08/10 07:26:33;;;;;;;2.38;1.00;;;20.80;99.90;;;;;;5014255;28;20531;-78
2023/08/10 07:28:59;;;;;;;1.70;0.65;;;20.60;99.90;;;;;;5016627;28;20047;-74
2023/08/10 07:31:31;;;;;;;2.25;0.68;;;20.60;99.90;;;;;;5016827;28;20048;-74
2023/08/10 07:33:59;;;;;;;2.95;1.50;;;20.60;99.90;;;;;;5044087;28;20059;-73
2023/08/10 07:36:26;;;;;;;2.80;0.60;;;20.70;99.90;;;;;;5034992;28;20063;-74
2023/08/10 07:38:55;;;;;;;2.17;0.60;;;20.80;99.90;;;;;;5012870;28;20366;-75
2023/08/10 07:41:22;;;;;;;1.88;0.65;;;20.80;99.90;;;;;;5033095;28;20033;-73
2023/08/10 07:43:49;;;;;;;2.67;0.60;;;20.90;99.90;;;;;;5032655;28;20483;-73
2023/08/10 07:46:16;;;;;;;1.23;0.30;;;21.00;99.90;;;;;;5032016;28;20029;-73
2023/08/10 07:48:43;;;;;;;2.70;0.40;;;21.10;99.90;;;;;;5030985;28;20028;-73
2023/08/10 07:51:09;;;;;;;1.02;0.30;;;21.10;99.90;;;;;;5031372;28;20430;-73
2023/08/10 07:53:35;;;;;;;1.52;0.40;;;21.20;99.90;;;;;;5016705;28;20124;-74
2023/08/10 07:56:02;;;;;;;1.52;0.50;;;21.20;99.90;;;;;;5033001;28;20033;-73
2023/08/10 07:58:28;;;;;;;1.10;0.30;;;21.40;99.90;;;;;;5031982;28;20029;-73
2023/08/10 08:00:55;;;;;;;1.60;0.30;;;21.40;99.90;;;;;;5012751;28;20498;-73
2023/08/10 08:03:22;;;;;;;1.55;0.40;;;21.50;99.90;;;;;;5013402;28;20050;-74
2023/08/10 08:05:48;;;;;;;1.95;0.40;;;21.60;99.90;;;;;;5030479;28;20463;-73
2023/08/10 08:08:14;;;;;;;1.67;0.40;;;21.70;99.90;;;;;;5031228;28;20608;-73
2023/08/10 08:10:41;;;;;;;0.65;0.30;;;21.70;99.90;;;;;;5012387;28;20037;-74
2023/08/10 08:13:08;;;;;;;1.10;0.30;;;21.80;99.90;;;;;;5033918;28;20484;-74
2023/08/10 08:15:35;;;;;;;1.33;0.40;;;21.80;99.90;;;;;;5031672;28;20070;-73
2023/08/10 08:18:39;;;;;;;1.13;0.40;;;21.90;99.90;;;;;;5030955;28;20045;-73
2023/08/10 08:21:28;;;;;;;0.95;0.40;;;22.00;99.90;;;;;;5029665;28;20570;-73
2023/08/10 08:23:55;;;;;;;1.92;0.50;;;22.10;99.90;;;;;;5030932;28;20037;-74
2023/08/10 08:26:27;;;;;;;0.88;0.40;;;22.10;99.90;;;;;;5004834;28;20048;-74
2023/08/10 08:28:55;;;;;;;1.02;0.38;;;22.30;99.90;;;;;;5029932;28;20043;-74
2023/08/10 08:31:21;;;;;;;1.27;0.47;;;22.40;99.90;;;;;;5000024;28;20049;-74
2023/08/10 08:33:47;;;;;;;1.13;0.40;;;22.50;99.90;;;;;;4996648;28;20032;-75
2023/08/10 08:36:14;;;;;;;1.83;0.45;;;22.70;99.90;;;;;;5032915;28;20059;-73
2023/08/10 08:38:40;;;;;;;2.28;0.50;;;22.80;99.90;;;;;;5014265;28;20025;-74
2023/08/10 08:41:08;;;;;;;1.65;0.60;;;23.00;99.90;;;;;;5015794;28;20033;-75
2023/08/10 08:43:36;;;;;;;3.35;0.57;;;23.00;99.90;;;;;;5009943;28;20040;-74
2023/08/10 08:46:04;;;;;;;1.58;0.30;;;23.10;99.90;;;;;;5028733;28;20044;-74
2023/08/10 08:48:30;;;;;;;1.80;0.50;;;23.10;99.90;;;;;;5030320;28;20040;-74
2023/08/10 08:50:57;;;;;;;1.13;0.45;;;23.20;99.90;;;;;;5014278;28;20033;-73
2023/08/10 08:53:24;;;;;;;1.33;0.50;;;23.30;99.90;;;;;;5009586;28;20483;-74
2023/08/10 08:55:51;;;;;;;1.38;0.40;;;23.50;99.90;;;;;;5029277;28;20040;-74
2023/08/10 08:58:18;;;;;;;1.23;0.40;;;23.70;99.90;;;;;;5033848;28;20044;-74
2023/08/10 09:00:52;;;;;;;2.88;0.50;;;23.80;99.90;;;;;;5028683;28;20037;-74
2023/08/10 09:03:28;;;;;;;2.45;0.70;;;24.00;99.90;;;;;;5031423;28;20025;-74
2023/08/10 09:05:54;;;;;;;2.55;0.52;;;24.30;99.90;;;;;;5045566;28;20042;-73
2023/08/10 09:08:22;;;;;;;2.88;0.60;;;24.40;99.90;;;;;;5023341;28;20020;-73
2023/08/10 09:10:48;;;;;;;1.08;0.50;;;24.60;99.90;;;;;;5029322;28;20040;-73
2023/08/10 09:13:23;;;;;;;1.88;0.60;;;24.80;99.90;;;;;;5032007;28;20041;-74
2023/08/10 09:16:09;;;;;;;2.78;0.50;;;25.00;99.70;;;;;;5014383;28;20029;-74
2023/08/10 09:18:38;;;;;;;1.77;0.60;;;25.10;99.00;;;;;;5014598;28;20041;-73
2023/08/10 09:21:15;;;;;;;3.15;0.50;;;25.20;98.50;;;;;;5029712;28;20375;-72
2023/08/10 09:23:43;;;;;;;1.55;0.40;;;25.20;98.50;;;;;;5031439;28;20044;-74
2023/08/10 09:26:10;;;;;;;1.30;0.50;;;25.10;98.00;;;;;;5037335;28;20041;-73
2023/08/10 09:28:38;;;;;;;1.05;0.40;;;25.00;97.90;;;;;;5035612;28;20396;-74
2023/08/10 09:31:07;;;;;;;0.90;0.30;;;24.80;98.10;;;;;;5002289;28;20675;-72
2023/08/10 09:33:35;;;;;;;1.23;0.30;;;24.60;98.30;;;;;;5016882;28;20045;-72
2023/08/10 09:36:04;;;;;;;1.45;0.50;;;24.50;98.40;;;;;;5031813;28;20028;-73
2023/08/10 09:38:31;;;;;;;1.17;0.40;;;24.60;98.20;;;;;;5036145;28;20037;-72
2023/08/10 09:41:08;;;;;;;1.13;0.40;;;24.50;97.90;;;;;;5033966;28;20103;-72
2023/08/10 09:43:36;;;;;;;4.05;0.68;;;24.30;97.90;;;;;;5031820;28;20029;-72
2023/08/10 09:46:07;;;;;;;2.00;0.30;;;24.20;98.20;;;;;;5010102;28;20037;-73
2023/08/10 09:48:35;;;;;;;1.48;0.38;;;24.10;98.40;;;;;;5014902;28;20471;-72
2023/08/10 09:51:06;;;;;;;1.73;0.50;;;24.20;98.70;;;;;;5034574;28;20723;-72
2023/08/10 09:53:33;;;;;;;0.47;0.20;;;24.40;98.40;;;;;;5030915;28;20048;-72
2023/08/10 09:56:01;;;;;;;2.10;0.40;;;24.60;98.40;;;;;;5034532;28;20032;-73
2023/08/10 09:58:28;;;;;;;1.13;0.50;;;24.70;98.40;;;;;;5031278;28;20577;-73
2023/08/10 10:00:55;;;;;;;2.08;0.40;;;24.70;97.40;;;;;;5018077;28;20041;-73
2023/08/10 10:03:23;;;;;;;1.42;0.40;;;24.80;97.70;;;;;;5033241;28;20029;-73
2023/08/10 10:05:50;;;;;;;1.38;0.45;;;24.90;97.80;;;;;;4993496;28;20037;-73
2023/08/10 10:08:17;;;;;;;1.10;0.50;;;24.90;97.70;;;;;;5033667;28;20249;-74
2023/08/10 10:10:45;;;;;;;3.90;0.60;;;24.80;97.50;;;;;;5018140;28;20052;-72
2023/08/10 10:13:15;;;;;;;1.73;0.60;;;24.70;97.40;;;;;;5015321;28;20033;-72
2023/08/10 10:15:43;;;;;;;1.48;0.70;;;24.70;97.30;;;;;;5000685;28;20040;-73
2023/08/10 10:18:11;;;;;;;2.13;0.60;;;24.70;97.10;;;;;;5001867;28;20033;-73
2023/08/10 10:20:39;;;;;;;1.65;0.80;;;24.70;97.10;;;;;;5034596;28;20032;-74
2023/08/10 10:23:15;;;;;;;1.08;0.55;;;24.80;97.40;;;;;;5013958;28;20033;-73
2023/08/10 10:25:59;;;;;;;2.13;0.70;;;25.30;97.50;;;;;;5002678;28;20041;-72
2023/08/10 10:28:29;;;;;;;1.90;0.60;;;25.80;97.20;;;;;;5032999;28;20037;-73
2023/08/10 10:31:05;;;;;;;5.07;0.68;;;25.90;96.60;;;;;;5033459;28;20033;-72
2023/08/10 10:33:36;;;;;;;2.28;0.70;;;25.80;96.30;;;;;;5032859;28;20387;-73
2023/08/10 10:36:11;;;;;;;1.47;0.60;;;25.60;96.30;;;;;;5034010;28;20033;-73
2023/08/10 10:38:39;;;;;;;1.13;0.47;;;25.40;96.70;;;;;;5036075;28;20033;-74
2023/08/10 10:41:16;;;;;;;1.85;0.63;;;25.30;97.10;;;;;;5017179;28;20036;-74
2023/08/10 10:43:44;;;;;;;2.78;0.80;;;25.70;97.30;;;;;;5016128;28;20045;-74
2023/08/10 10:46:29;;;;;;;2.83;0.60;;;26.20;97.30;;;;;;5030793;28;20045;-73
2023/08/10 10:48:57;;;;;;;1.58;0.50;;;26.70;97.00;;;;;;5034069;28;20036;-74
2023/08/10 10:51:25;;;;;;;2.90;0.88;;;27.20;97.00;;;;;;5035902;28;20388;-72
2023/08/10 10:53:55;;;;;;;1.60;0.60;;;27.70;96.10;;;;;;5017358;28;20506;-73
2023/08/10 10:56:24;;;;;;;1.92;0.70;;;28.00;95.50;;;;;;5017089;28;20041;-73
2023/08/10 10:58:50;;;;;;;2.13;0.60;;;28.40;95.40;;;;;;5034932;28;20037;-72
2023/08/10 11:01:21;;;;;;;2.65;0.60;;;28.80;94.60;;;;;;5014202;28;20068;-73
2023/08/10 11:03:52;;;;;;;1.20;0.50;;;29.20;94.50;;;;;;5011530;28;20260;-73
2023/08/10 11:06:20;;;;;;;3.05;0.50;;;29.60;93.50;;;;;;5034218;28;22599;-73
2023/08/10 11:08:51;;;;;;;1.15;0.60;;;29.90;93.10;;;;;;5030921;28;20494;-75
2023/08/10 11:11:18;;;;;;;2.75;0.60;;;30.30;92.20;;;;;;5032947;28;20040;-74
2023/08/10 11:13:44;;;;;;;2.83;0.75;;;30.60;91.40;;;;;;5001545;28;20029;-74
2023/08/10 11:16:11;;;;;;;4.78;0.50;;;31.00;90.90;;;;;;5030230;28;20419;-73
2023/08/10 11:18:37;;;;;;;2.65;0.57;;;31.30;88.90;;;;;;5015940;28;20052;-74
2023/08/10 11:21:08;;;;;;;2.78;0.40;;;31.40;88.40;;;;;;5027844;28;20040;-75
2023/08/10 11:23:35;;;;;;;2.05;0.47;;;31.70;87.50;;;;;;5031205;28;20433;-74
2023/08/10 11:26:04;;;;;;;1.00;0.50;;;32.00;86.50;;;;;;5015866;28;20044;-74
2023/08/10 11:28:31;;;;;;;1.80;0.47;;;32.20;84.10;;;;;;5014029;28;20026;-74
2023/08/10 11:31:06;;;;;;;1.95;0.70;;;32.30;81.90;;;;;;5006818;28;20403;-74
2023/08/10 11:33:32;;;;;;;2.58;0.50;;;32.60;81.30;;;;;;5016867;28;20048;-74
2023/08/10 11:35:59;;;;;;;2.58;0.60;;;33.00;80.80;;;;;;5030594;28;20041;-73
2023/08/10 11:38:26;;;;;;;2.78;0.73;;;33.30;78.60;;;;;;5017769;28;20052;-75
2023/08/10 11:40:57;;;;;;;1.65;0.50;;;33.60;77.20;;;;;;5033586;28;20043;-75
2023/08/10 11:43:25;;;;;;;3.08;0.57;;;34.00;76.00;;;;;;5033907;28;20041;-74
2023/08/10 11:45:54;;;;;;;1.80;0.70;;;34.30;73.00;;;;;;5031199;28;20051;-75
2023/08/10 11:48:22;;;;;;;2.58;0.57;;;34.60;72.10;;;;;;5016453;28;20040;-74
2023/08/10 11:50:58;;;;;;;2.03;0.68;;;34.70;71.30;;;;;;5032606;28;20487;-74
2023/08/10 11:53:32;;;;;;;2.42;0.70;;;34.60;71.20;;;;;;5012906;28;20463;-75
2023/08/10 11:55:59;;;;;;;1.63;0.60;;;34.50;70.20;;;;;;5031890;28;20029;-73
2023/08/10 11:58:32;;;;;;;1.42;0.70;;;34.50;68.90;;;;;;5034072;28;20041;-75
2023/08/10 12:01:03;;;;;;;1.98;0.70;;;34.10;66.50;;;;;;5033332;28;20446;-74
2023/08/10 12:03:29;;;;;;;3.33;0.80;;;33.50;67.80;;;;;;5026393;28;20033;-75
2023/08/10 12:05:59;;;;;;;2.28;0.80;;;33.00;68.00;;;;;;5029442;28;20047;-74
2023/08/10 12:08:26;;;;;;;2.97;0.68;;;32.50;68.30;;;;;;5010697;28;20065;-75
2023/08/10 12:11:06;;;;;;;2.15;0.70;;;32.30;68.90;;;;;;5031210;28;20025;-75
2023/08/10 12:13:45;;;;;;;3.33;0.60;;;32.60;69.10;;;;;;5030294;28;20040;-75
2023/08/10 12:16:13;;;;;;;1.10;0.50;;;33.10;68.00;;;;;;5043349;28;20056;-75
2023/08/10 12:18:40;;;;;;;1.88;0.60;;;33.80;67.10;;;;;;5014314;28;20048;-74
2023/08/10 12:21:07;;;;;;;3.20;0.70;;;34.50;66.70;;;;;;5031238;28;20052;-75
2023/08/10 12:23:33;;;;;;;1.63;0.60;;;35.20;66.40;;;;;;5030616;28;20491;-75
2023/08/10 12:25:59;;;;;;;1.73;0.80;;;35.90;65.40;;;;;;5031002;28;20041;-75
2023/08/10 12:28:26;;;;;;;3.67;0.68;;;36.60;63.60;;;;;;5034502;28;20364;-73
2023/08/10 12:30:52;;;;;;;2.63;0.68;;;36.70;61.80;;;;;;5028509;28;20025;-72
2023/08/10 12:33:19;;;;;;;2.58;0.60;;;36.10;61.00;;;;;;5000303;28;20040;-74
2023/08/10 12:35:45;;;;;;;1.95;0.68;;;35.90;61.50;;;;;;5029636;28;20035;-73
2023/08/10 12:38:12;;;;;;;1.27;0.47;;;35.90;62.40;;;;;;5031077;28;20045;-73
2023/08/10 12:40:39;;;;;;;5.85;1.17;;;35.50;62.40;;;;;;5030513;28;20036;-73
2023/08/10 12:43:06;;;;;;;1.83;0.70;;;35.00;62.00;;;;;;5031808;28;20029;-73
2023/08/10 12:45:32;;;;;;;4.03;0.70;;;34.80;61.50;;;;;;5010108;28;20071;-72
2023/08/10 12:48:00;;;;;;;1.42;0.57;;;35.20;62.10;;;;;;5008460;28;20036;-74
2023/08/10 12:50:28;;;;;;;2.35;0.70;;;35.70;60.70;;;;;;5030406;28;20040;-73
2023/08/10 12:52:55;;;;;;;2.47;0.95;;;36.30;61.10;;;;;;4998378;28;20695;-74